Time;durP1;ratioP1;P1;durP2;ratioP2;P2;SDS_P1;SDS_P2;PMS_P1;PMS_P2;Temp;Humidity;BMP_temperature;BMP_pressure;BME280_temperature;BME280_humidity;BME280_pressure;Samples;Min_cycle;Max_cycle;Signal;HPM_P1;HPM_P2
2021/07/31 00:01:06;;;;;;;5.60;4.40;;;;;;;15.43;78.82;95326.02;1787888;80;20965;-59
2021/07/31 00:03:33;;;;;;;4.55;4.00;;;;;;;15.52;78.68;95328.74;1787473;80;21035;-59
2021/07/31 00:05:59;;;;;;;5.30;4.53;;;;;;;15.61;78.31;95327.50;1787552;80;21036;-59
2021/07/31 00:08:28;;;;;;;6.30;4.00;;;;;;;15.57;77.90;95324.98;1787724;80;20994;-59
2021/07/31 00:10:55;;;;;;;5.62;4.55;;;;;;;15.62;77.88;95319.44;1787805;80;20973;-59
2021/07/31 00:13:22;;;;;;;5.10;4.00;;;;;;;15.61;77.67;95320.86;1787724;80;21010;-59
2021/07/31 00:15:50;;;;;;;5.90;4.30;;;;;;;15.51;77.90;95323.89;1787729;80;21046;-59
2021/07/31 00:18:17;;;;;;;4.70;3.80;;;;;;;15.43;78.73;95321.17;1787111;80;21060;-61
2021/07/31 00:20:43;;;;;;;4.80;3.60;;;;;;;15.39;78.56;95331.05;1787644;80;21017;-59
2021/07/31 00:23:10;;;;;;;5.47;3.70;;;;;;;15.29;78.85;95326.58;1787722;80;21010;-60
2021/07/31 00:25:37;;;;;;;4.72;4.20;;;;;;;15.30;78.87;95330.13;1787332;80;21073;-59
2021/07/31 00:28:04;;;;;;;5.08;4.30;;;;;;;15.38;78.45;95329.34;1787901;80;21459;-59
2021/07/31 00:30:31;;;;;;;5.12;4.00;;;;;;;15.42;78.22;95324.30;1787739;80;21009;-59
2021/07/31 00:32:57;;;;;;;5.83;4.12;;;;;;;15.35;78.06;95330.33;1787488;80;21013;-59
2021/07/31 00:35:25;;;;;;;6.85;3.98;;;;;;;15.33;78.43;95336.64;1787791;80;20993;-59
2021/07/31 00:37:52;;;;;;;5.78;4.75;;;;;;;15.33;78.63;95336.64;1787709;80;21496;-59
2021/07/31 00:40:19;;;;;;;8.10;4.47;;;;;;;15.39;78.50;95339.50;1787222;80;21061;-59
2021/07/31 00:42:45;;;;;;;6.10;3.90;;;;;;;15.36;78.45;95332.52;1787771;80;21463;-59
2021/07/31 00:45:13;;;;;;;5.70;3.45;;;;;;;15.31;78.22;95327.38;1787425;80;21060;-60
2021/07/31 00:47:42;;;;;;;5.30;3.58;;;;;;;15.16;78.66;95338.65;1787425;80;20981;-59
2021/07/31 00:50:10;;;;;;;6.75;4.45;;;;;;;15.11;77.87;95333.52;1787589;80;21010;-59
2021/07/31 00:52:39;;;;;;;4.92;3.83;;;;;;;15.10;78.22;95336.25;1787688;80;20981;-60
2021/07/31 00:55:09;;;;;;;4.87;3.83;;;;;;;15.05;78.51;95332.91;1787947;80;20989;-59
2021/07/31 00:57:40;;;;;;;5.10;4.00;;;;;;;14.96;78.31;95334.13;1752219;80;21498;-59
2021/07/31 01:00:21;;;;;;;6.17;4.45;;;;;;;14.93;78.79;95328.95;1785057;80;21016;-59
2021/07/31 01:02:47;;;;;;;4.95;4.10;;;;;;;14.93;78.67;95327.15;1787873;80;21033;-59
2021/07/31 01:05:14;;;;;;;5.78;3.58;;;;;;;14.86;78.18;95325.66;1752205;80;20969;-59
2021/07/31 01:07:41;;;;;;;4.33;3.92;;;;;;;14.77;78.29;95323.39;1787632;80;21464;-59
2021/07/31 01:10:09;;;;;;;7.90;4.58;;;;;;;14.77;78.87;95322.53;1787681;80;21001;-59
2021/07/31 01:12:39;;;;;;;5.62;3.80;;;;;;;14.74;79.17;95317.31;1752157;80;21491;-59
2021/07/31 01:15:08;;;;;;;8.05;4.22;;;;;;;14.71;80.10;95315.17;1787594;80;21024;-59
2021/07/31 01:17:35;;;;;;;6.47;4.40;;;;;;;14.73;80.18;95319.58;1787783;80;21499;-59
2021/07/31 01:20:02;;;;;;;5.05;4.30;;;;;;;14.76;79.80;95324.29;1795686;80;21021;-58
2021/07/31 01:22:29;;;;;;;6.12;4.40;;;;;;;14.75;79.59;95326.56;1796223;80;21040;-59
2021/07/31 01:24:59;;;;;;;5.55;4.20;;;;;;;14.77;79.72;95323.39;1794938;80;21017;-59
2021/07/31 01:27:25;;;;;;;5.08;4.03;;;;;;;14.74;79.29;95322.19;1796396;80;20997;-59
2021/07/31 01:29:51;;;;;;;4.85;3.75;;;;;;;14.74;79.21;95318.64;1796121;80;21032;-59
2021/07/31 01:32:18;;;;;;;5.95;4.08;;;;;;;14.77;79.26;95322.53;1796324;80;20965;-59
2021/07/31 01:34:45;;;;;;;7.50;4.35;;;;;;;14.80;79.17;95325.06;1796201;79;20997;-59
2021/07/31 01:37:12;;;;;;;5.10;3.45;;;;;;;14.86;79.11;95326.98;1796346;80;20957;-59
2021/07/31 01:39:39;;;;;;;4.95;3.90;;;;;;;14.82;78.34;95323.21;1796318;79;21534;-59
2021/07/31 01:42:07;;;;;;;6.53;3.95;;;;;;;14.68;78.34;95321.08;1796127;80;20957;-59
2021/07/31 01:44:36;;;;;;;5.97;3.60;;;;;;;14.66;78.49;95309.17;1796271;79;21482;-59
2021/07/31 01:47:03;;;;;;;6.05;3.90;;;;;;;14.67;79.07;95310.06;1796370;80;20997;-59
2021/07/31 01:49:31;;;;;;;4.53;3.92;;;;;;;14.57;79.35;95317.98;1796159;80;20969;-59
2021/07/31 01:51:59;;;;;;;4.55;3.62;;;;;;;14.58;79.31;95314.40;1795005;80;20989;-59
2021/07/31 01:54:26;;;;;;;5.28;3.70;;;;;;;14.51;79.49;95311.06;1765117;80;20978;-59
2021/07/31 01:56:53;;;;;;;5.83;4.10;;;;;;;14.54;79.53;95314.99;1796059;79;21053;-59
2021/07/31 01:59:21;;;;;;;7.78;4.10;;;;;;;14.50;79.69;95313.33;1765139;80;20981;-59
2021/07/31 02:01:47;;;;;;;5.47;3.27;;;;;;;14.43;79.74;95313.16;1796483;79;21029;-59
2021/07/31 02:04:14;;;;;;;4.97;3.65;;;;;;;14.37;80.54;95310.75;1796177;79;20972;-59
2021/07/31 02:06:40;;;;;;;7.00;4.37;;;;;;;14.36;80.13;95318.30;1795991;79;21037;-59
2021/07/31 02:09:07;;;;;;;5.50;3.45;;;;;;;14.38;79.88;95319.11;1796269;79;21017;-59
2021/07/31 02:11:34;;;;;;;5.53;4.00;;;;;;;14.37;79.70;95312.08;1796134;80;21049;-59
2021/07/31 02:14:02;;;;;;;4.22;3.50;;;;;;;14.33;80.33;95319.27;1796302;80;21028;-59
2021/07/31 02:16:30;;;;;;;5.80;3.60;;;;;;;14.29;80.01;95317.21;1795711;80;20977;-59
2021/07/31 02:18:58;;;;;;;6.72;3.95;;;;;;;14.23;80.23;95317.42;1792069;80;21009;-59
2021/07/31 02:21:26;;;;;;;5.50;3.87;;;;;;;14.20;80.25;95324.17;1786751;80;21041;-59
2021/07/31 02:23:55;;;;;;;4.42;3.42;;;;;;;14.28;79.92;95321.23;1785324;80;21032;-58
2021/07/31 02:26:39;;;;;;;4.28;3.67;;;;;;;14.23;79.46;95321.40;1787578;80;21021;-59
2021/07/31 02:29:07;;;;;;;4.92;3.55;;;;;;;14.07;80.26;95322.91;1786300;80;21507;-59
2021/07/31 02:31:36;;;;;;;6.10;3.70;;;;;;;14.03;80.42;95330.09;1787640;80;20969;-59
2021/07/31 02:34:04;;;;;;;7.25;3.35;;;;;;;13.99;80.28;95328.49;1787379;80;20966;-59
2021/07/31 02:36:31;;;;;;;4.05;3.30;;;;;;;13.95;80.42;95332.62;1787512;80;21009;-59
2021/07/31 02:39:02;;;;;;;6.55;3.70;;;;;;;13.91;81.17;95334.54;1785381;80;21020;-60
2021/07/31 02:41:29;;;;;;;5.00;4.17;;;;;;;13.94;80.92;95338.41;1787694;80;21484;-59
2021/07/31 02:43:57;;;;;;;7.92;4.10;;;;;;;13.95;81.04;95337.47;1787598;80;21535;-59
2021/07/31 02:46:24;;;;;;;5.03;3.80;;;;;;;13.94;81.49;95335.75;1787399;80;20986;-59
2021/07/31 02:48:50;;;;;;;4.85;3.90;;;;;;;13.94;80.96;95334.42;1787846;80;20950;-59
2021/07/31 02:51:18;;;;;;;6.30;3.92;;;;;;;13.92;80.54;95333.61;1787357;80;21460;-59
2021/07/31 02:54:04;;;;;;;6.05;4.15;;;;;;;13.92;80.56;95334.94;1785670;80;20969;-59
2021/07/31 02:56:33;;;;;;;6.35;3.55;;;;;;;13.99;80.50;95335.59;1787780;80;21113;-59
2021/07/31 02:59:02;;;;;;;4.70;3.50;;;;;;;14.06;80.56;95337.07;1787678;80;21008;-59
2021/07/31 03:01:30;;;;;;;4.55;3.45;;;;;;;14.16;80.21;95333.19;1787613;80;21507;-59
2021/07/31 03:03:57;;;;;;;5.95;3.33;;;;;;;14.07;79.57;95340.16;1752074;80;21506;-59
2021/07/31 03:06:24;;;;;;;6.03;3.70;;;;;;;13.99;79.41;95336.92;1786994;80;21037;-59
2021/07/31 03:08:51;;;;;;;4.67;3.50;;;;;;;13.97;79.47;95342.27;1787675;80;21009;-59
2021/07/31 03:11:18;;;;;;;4.37;3.50;;;;;;;13.97;79.87;95336.95;1787314;80;21014;-59
2021/07/31 03:13:45;;;;;;;4.50;3.70;;;;;;;13.98;80.17;95333.38;1787582;80;21530;-59
2021/07/31 03:16:12;;;;;;;6.05;3.40;;;;;;;14.00;80.33;95336.84;1787409;80;21029;-59
2021/07/31 03:18:41;;;;;;;4.65;3.70;;;;;;;13.97;80.61;95335.63;1787433;80;21615;-59
2021/07/31 03:21:11;;;;;;;5.65;4.10;;;;;;;13.99;80.60;95330.28;1786977;80;21029;-59
2021/07/31 03:23:45;;;;;;;6.05;3.50;;;;;;;14.08;80.51;95329.93;1786524;80;21057;-59
2021/07/31 03:26:12;;;;;;;4.83;4.12;;;;;;;14.12;79.66;95332.03;1752431;80;21522;-59
2021/07/31 03:28:39;;;;;;;4.83;3.50;;;;;;;14.06;79.89;95328.68;1787658;80;20978;-59
2021/07/31 03:31:06;;;;;;;3.50;3.00;;;;;;;14.02;79.76;95332.82;1787796;80;21006;-59
2021/07/31 03:33:32;;;;;;;6.95;3.50;;;;;;;13.93;79.95;95324.72;1787954;80;21010;-59
2021/07/31 03:35:59;;;;;;;4.30;3.20;;;;;;;13.95;79.51;95332.16;1787438;80;21531;-59
2021/07/31 03:38:34;;;;;;;4.03;3.22;;;;;;;13.97;79.62;95334.77;1786494;80;21025;-59
2021/07/31 03:41:00;;;;;;;5.90;3.50;;;;;;;13.85;79.66;95338.25;1787511;80;21004;-60
2021/07/31 03:43:29;;;;;;;3.80;3.40;;;;;;;13.79;79.79;95332.32;1787415;80;21001;-59
2021/07/31 03:45:55;;;;;;;3.70;3.08;;;;;;;13.79;80.47;95338.48;1787937;80;21014;-59
2021/07/31 03:48:22;;;;;;;4.40;3.27;;;;;;;13.79;81.65;95331.00;1787578;80;21339;-59
2021/07/31 03:50:49;;;;;;;4.83;3.98;;;;;;;13.84;82.17;95335.67;1787658;80;20993;-59
2021/07/31 03:53:17;;;;;;;4.50;3.50;;;;;;;13.94;81.54;95341.05;1787810;80;20981;-59
2021/07/31 03:55:48;;;;;;;4.45;3.92;;;;;;;14.02;81.45;95336.80;1787835;80;21030;-59
2021/07/31 03:58:15;;;;;;;5.10;4.05;;;;;;;14.11;81.25;95332.93;1787998;80;21002;-59
2021/07/31 04:00:43;;;;;;;8.80;3.08;;;;;;;14.20;81.08;95318.87;1787691;80;21029;-59
2021/07/31 04:03:11;;;;;;;4.35;3.90;;;;;;;14.29;80.64;95315.88;1787761;80;20989;-59
2021/07/31 04:05:40;;;;;;;4.10;3.50;;;;;;;14.40;80.82;95315.94;1787700;80;21018;-59
2021/07/31 04:08:25;;;;;;;4.17;3.30;;;;;;;14.54;80.78;95312.34;1787935;80;21093;-59
2021/07/31 04:11:05;;;;;;;4.45;3.50;;;;;;;14.64;80.03;95304.85;1738667;80;21482;-59
2021/07/31 04:13:49;;;;;;;6.95;4.05;;;;;;;14.69;80.14;95305.53;1787629;80;21045;-60
2021/07/31 04:16:18;;;;;;;5.22;3.87;;;;;;;14.75;80.25;95300.00;1786813;80;21463;-59
2021/07/31 04:18:44;;;;;;;5.92;4.40;;;;;;;14.88;79.98;95305.69;1787738;80;21033;-59
2021/07/31 04:21:11;;;;;;;6.50;4.22;;;;;;;15.09;80.09;95304.83;1787459;80;21044;-59
2021/07/31 04:23:38;;;;;;;5.97;4.33;;;;;;;15.24;79.36;95307.30;1787589;80;20994;-59
2021/07/31 04:26:13;;;;;;;5.28;4.45;;;;;;;15.33;78.56;95308.72;1787866;80;21053;-59
2021/07/31 04:28:41;;;;;;;6.25;4.55;;;;;;;15.46;78.14;95310.41;1787317;80;21014;-59
2021/07/31 04:31:14;;;;;;;5.87;4.45;;;;;;;15.66;77.21;95310.89;1752536;80;20997;-59
2021/07/31 04:33:41;;;;;;;4.85;4.10;;;;;;;15.71;76.53;95308.92;1787898;80;21495;-59
2021/07/31 04:36:09;;;;;;;7.03;4.45;;;;;;;15.72;76.50;95314.63;1787509;80;21112;-59
2021/07/31 04:38:37;;;;;;;7.08;4.50;;;;;;;15.75;77.29;95310.06;1787887;80;21005;-59
2021/07/31 04:41:05;;;;;;;6.12;4.20;;;;;;;15.85;76.92;95309.20;1787778;80;21017;-60
2021/07/31 04:43:33;;;;;;;5.40;4.15;;;;;;;15.97;77.41;95307.30;1787575;80;21021;-59
2021/07/31 04:46:01;;;;;;;6.17;4.00;;;;;;;16.06;77.06;95299.86;1787662;80;21014;-59
2021/07/31 04:48:27;;;;;;;5.15;4.17;;;;;;;16.17;76.76;95310.88;1787864;80;21053;-59
2021/07/31 04:50:56;;;;;;;5.75;3.87;;;;;;;16.29;75.94;95302.81;1787701;80;21002;-59
2021/07/31 04:53:24;;;;;;;5.58;4.45;;;;;;;16.35;75.57;95298.52;1787472;80;21492;-60
2021/07/31 04:55:51;;;;;;;5.30;4.22;;;;;;;16.43;76.36;95299.91;1752176;80;21025;-59
2021/07/31 04:58:17;;;;;;;5.15;4.33;;;;;;;16.52;76.56;95291.09;1787629;80;20970;-60
2021/07/31 05:00:46;;;;;;;9.13;4.50;;;;;;;16.64;76.25;95286.53;1787443;80;21037;-59
2021/07/31 05:03:14;;;;;;;4.80;4.30;;;;;;;16.74;75.90;95289.63;1787812;80;21471;-59
2021/07/31 05:05:43;;;;;;;4.95;4.40;;;;;;;16.86;75.78;95292.59;1787427;80;20986;-59
2021/07/31 05:08:11;;;;;;;6.00;4.50;;;;;;;17.01;75.94;95295.44;1787810;80;21041;-59
2021/07/31 05:10:43;;;;;;;5.67;4.20;;;;;;;17.13;75.84;95289.98;1787552;80;21049;-59
2021/07/31 05:13:11;;;;;;;7.12;4.55;;;;;;;17.24;75.72;95291.67;1787598;80;21435;-59
2021/07/31 05:15:40;;;;;;;6.60;4.80;;;;;;;17.35;75.83;95292.46;1787719;80;20990;-59
2021/07/31 05:18:08;;;;;;;4.85;4.03;;;;;;;17.44;75.58;95291.53;1787818;80;21474;-60
2021/07/31 05:20:44;;;;;;;5.58;4.28;;;;;;;17.49;74.99;95295.31;1793884;80;21005;-59
2021/07/31 05:23:13;;;;;;;6.00;4.83;;;;;;;17.62;75.14;95292.40;1796087;80;21013;-59
2021/07/31 05:25:44;;;;;;;8.50;4.45;;;;;;;17.78;75.04;95294.28;1796414;80;21044;-59
2021/07/31 05:28:11;;;;;;;8.60;4.22;;;;;;;17.93;74.90;95297.52;1795951;80;21005;-60
2021/07/31 05:30:40;;;;;;;5.92;4.15;;;;;;;18.05;74.68;95284.86;1765070;80;20981;-59
2021/07/31 05:33:07;;;;;;;6.03;4.53;;;;;;;18.19;74.00;95279.25;1796287;80;21001;-59
2021/07/31 05:35:34;;;;;;;5.53;4.17;;;;;;;18.31;73.75;95284.80;1796128;80;20985;-60
2021/07/31 05:38:02;;;;;;;5.72;3.95;;;;;;;18.46;73.14;95280.91;1796260;79;21005;-59
2021/07/31 05:40:29;;;;;;;6.92;4.72;;;;;;;18.67;69.78;95268.17;1796482;79;20993;-59
2021/07/31 05:42:55;;;;;;;4.95;4.45;;;;;;;18.67;69.78;95268.17;1765061;80;21079;-60
2021/07/31 05:45:22;;;;;;;5.80;4.80;;;;;;;19.03;70.91;95273.31;1795984;80;21048;-59
2021/07/31 05:47:49;;;;;;;4.87;4.47;;;;;;;19.03;70.91;95273.31;1796468;80;21008;-59
2021/07/31 05:50:15;;;;;;;5.35;4.80;;;;;;;19.21;70.05;95270.91;1796272;79;21487;-59
2021/07/31 05:52:42;;;;;;;5.60;4.60;;;;;;;19.36;69.50;95270.98;1796181;80;21013;-59
2021/07/31 05:55:09;;;;;;;5.85;4.75;;;;;;;19.46;69.27;95266.33;1795970;79;21006;-60
2021/07/31 05:57:36;;;;;;;6.78;4.72;;;;;;;19.63;68.36;95269.80;1796230;80;21526;-59
2021/07/31 06:00:04;;;;;;;7.60;4.67;;;;;;;19.70;68.22;95271.20;1796167;79;21016;-60
2021/07/31 06:02:32;;;;;;;5.72;4.92;;;;;;;19.81;68.24;95276.79;1794644;80;21068;-59
2021/07/31 06:04:58;;;;;;;7.30;4.45;;;;;;;19.91;67.18;95268.18;1796408;80;20985;-59
2021/07/31 06:07:25;;;;;;;7.22;4.55;;;;;;;20.02;67.09;95268.41;1796305;80;21028;-59
2021/07/31 06:09:53;;;;;;;12.30;6.12;;;;;;;20.15;66.80;95264.02;1796006;80;20997;-59
2021/07/31 06:12:21;;;;;;;6.58;4.78;;;;;;;20.27;66.58;95267.77;1796327;79;20953;-59
2021/07/31 06:14:49;;;;;;;6.53;5.33;;;;;;;20.38;66.78;95269.77;1796114;80;21037;-59
2021/07/31 06:17:17;;;;;;;6.17;4.97;;;;;;;20.51;66.41;95264.02;1796231;80;21024;-59
2021/07/31 06:19:43;;;;;;;7.78;4.75;;;;;;;20.62;66.34;95265.59;1793668;79;20974;-59
2021/07/31 06:22:11;;;;;;;5.62;4.35;;;;;;;20.74;66.46;95256.77;1787634;80;21001;-60
2021/07/31 06:24:37;;;;;;;5.30;4.80;;;;;;;20.84;64.61;95261.52;1787399;80;21005;-60
2021/07/31 06:27:05;;;;;;;5.35;4.65;;;;;;;20.95;65.21;95251.83;1787678;80;21017;-59
2021/07/31 06:29:33;;;;;;;6.03;4.67;;;;;;;21.10;64.37;95251.31;1787710;80;21021;-59
2021/07/31 06:32:02;;;;;;;5.70;4.50;;;;;;;21.25;64.02;95248.09;1787718;80;21032;-59
2021/07/31 06:34:28;;;;;;;5.00;4.47;;;;;;;21.42;64.58;95249.70;1787634;80;21125;-60
2021/07/31 06:36:55;;;;;;;7.58;4.50;;;;;;;21.55;64.41;95244.37;1787169;80;20978;-59
2021/07/31 06:39:21;;;;;;;6.72;4.50;;;;;;;21.69;64.09;95243.42;1787708;80;21534;-59
2021/07/31 06:41:48;;;;;;;6.45;5.12;;;;;;;21.85;63.34;95233.36;1787492;80;21021;-60
2021/07/31 06:44:15;;;;;;;7.92;5.45;;;;;;;22.02;63.34;95233.06;1787511;80;20989;-60
2021/07/31 06:46:41;;;;;;;5.75;4.30;;;;;;;22.18;62.33;95227.46;1787724;80;21025;-59
2021/07/31 06:49:08;;;;;;;5.00;4.28;;;;;;;22.37;62.09;95226.19;1788010;80;21034;-60
2021/07/31 06:51:42;;;;;;;5.37;4.10;;;;;;;22.55;61.75;95226.20;1787603;80;21002;-59
2021/07/31 06:54:06;;;;;;;5.37;3.85;;;;;;;22.75;59.78;95231.98;1787049;80;21432;-59
2021/07/31 06:56:35;;;;;;;5.15;3.95;;;;;;;22.93;60.46;95228.44;1787663;80;21046;-60
2021/07/31 06:59:04;;;;;;;6.65;3.50;;;;;;;23.08;59.17;95229.56;1787358;80;21221;-59
2021/07/31 07:01:31;;;;;;;6.15;4.15;;;;;;;23.22;57.96;95227.18;1787594;80;21041;-59
2021/07/31 07:03:57;;;;;;;4.10;3.70;;;;;;;23.36;56.77;95223.47;1787714;80;20986;-59
2021/07/31 07:06:24;;;;;;;6.12;4.10;;;;;;;23.53;58.39;95223.03;1787164;80;21024;-60
2021/07/31 07:08:50;;;;;;;10.65;3.90;;;;;;;23.71;58.80;95227.99;1787765;80;21028;-59
2021/07/31 07:11:17;;;;;;;5.95;3.90;;;;;;;23.88;58.39;95226.73;1787815;80;21071;-59
2021/07/31 07:13:44;;;;;;;4.55;3.95;;;;;;;24.05;57.50;95228.98;1787646;80;21453;-59
2021/07/31 07:16:11;;;;;;;4.15;3.77;;;;;;;24.22;56.91;95224.98;1787338;80;21010;-59
2021/07/31 07:18:37;;;;;;;3.92;3.30;;;;;;;24.34;55.05;95217.75;1787218;80;21025;-60
2021/07/31 07:21:07;;;;;;;4.80;3.40;;;;;;;24.50;52.33;95220.99;1787384;80;21029;-60
2021/07/31 07:23:34;;;;;;;5.25;3.90;;;;;;;24.67;53.88;95222.81;1787599;80;21025;-60
2021/07/31 07:26:01;;;;;;;6.17;3.77;;;;;;;24.84;53.36;95225.01;1787493;80;21021;-59
2021/07/31 07:28:28;;;;;;;5.12;3.90;;;;;;;24.95;51.22;95229.06;1787368;80;21017;-59
2021/07/31 07:30:55;;;;;;;5.97;4.00;;;;;;;25.08;53.00;95221.31;1787692;80;21018;-60
2021/07/31 07:33:21;;;;;;;5.42;4.15;;;;;;;25.18;51.15;95216.41;1787448;80;20970;-59
2021/07/31 07:35:47;;;;;;;5.92;4.53;;;;;;;25.34;52.65;95223.23;1787588;80;21499;-60
2021/07/31 07:38:14;;;;;;;6.65;4.28;;;;;;;25.51;52.87;95228.59;1787234;80;21013;-60
2021/07/31 07:40:41;;;;;;;5.75;4.12;;;;;;;25.66;53.01;95221.39;1787468;80;21045;-59
2021/07/31 07:43:08;;;;;;;5.60;4.17;;;;;;;25.85;52.93;95216.65;1787455;80;21013;-59
2021/07/31 07:45:34;;;;;;;4.60;4.10;;;;;;;26.00;51.20;95211.78;1787510;80;21018;-59
2021/07/31 07:48:01;;;;;;;7.50;4.47;;;;;;;26.16;50.87;95211.80;1787790;80;21010;-59
2021/07/31 07:50:28;;;;;;;5.28;4.55;;;;;;;26.30;51.46;95205.56;1787429;80;21061;-59
2021/07/31 07:52:55;;;;;;;5.55;4.05;;;;;;;26.43;48.55;95213.95;1787578;80;20998;-59
2021/07/31 07:55:21;;;;;;;5.80;4.70;;;;;;;26.52;50.46;95214.05;1787543;80;21475;-59
2021/07/31 07:57:47;;;;;;;5.00;4.50;;;;;;;26.68;50.92;95218.09;1787973;80;21005;-59
2021/07/31 08:00:15;;;;;;;5.78;4.33;;;;;;;26.82;51.31;95216.38;1787458;80;21018;-59
2021/07/31 08:02:42;;;;;;;7.47;4.87;;;;;;;26.95;51.03;95221.05;1787803;80;21425;-59
2021/07/31 08:05:12;;;;;;;4.92;4.33;;;;;;;27.09;51.12;95214.87;1787257;80;20985;-59
2021/07/31 08:07:41;;;;;;;5.60;4.80;;;;;;;27.22;51.36;95214.69;1787245;80;21021;-59
2021/07/31 08:10:10;;;;;;;5.05;4.55;;;;;;;27.35;51.03;95212.05;1787668;80;21525;-59
2021/07/31 08:12:36;;;;;;;6.47;4.30;;;;;;;27.48;49.27;95207.72;1787702;80;21507;-59
2021/07/31 08:15:04;;;;;;;5.47;4.10;;;;;;;27.61;51.19;95204.22;1787790;80;21028;-59
2021/07/31 08:17:30;;;;;;;5.25;4.62;;;;;;;27.77;51.88;95203.68;1787694;80;21476;-59
2021/07/31 08:19:58;;;;;;;10.00;4.42;;;;;;;27.93;51.97;95199.56;1787769;80;21018;-59
2021/07/31 08:22:25;;;;;;;4.67;4.28;;;;;;;28.10;51.89;95202.89;1787457;80;21495;-59
2021/07/31 08:24:51;;;;;;;5.28;4.45;;;;;;;28.28;51.44;95206.22;1787719;80;20989;-59
2021/07/31 08:27:18;;;;;;;4.83;4.20;;;;;;;28.28;49.28;95203.00;1787406;80;21014;-59
2021/07/31 08:29:44;;;;;;;5.42;4.55;;;;;;;28.37;49.22;95203.96;1787620;80;21492;-60
2021/07/31 08:32:11;;;;;;;4.50;4.08;;;;;;;28.50;49.64;95203.67;1787916;80;21478;-59
2021/07/31 08:34:37;;;;;;;7.35;4.47;;;;;;;28.58;49.69;95201.94;1787860;80;20954;-60
2021/07/31 08:37:04;;;;;;;4.92;4.42;;;;;;;28.64;47.46;95201.34;1787368;80;21042;-60
2021/07/31 08:39:31;;;;;;;5.33;4.50;;;;;;;28.76;47.89;95202.52;1788060;80;20958;-59
2021/07/31 08:41:58;;;;;;;4.10;3.70;;;;;;;28.83;45.98;95208.56;1787607;80;21002;-59
2021/07/31 08:44:26;;;;;;;6.58;4.08;;;;;;;28.93;45.99;95199.02;1787755;80;21479;-60
2021/07/31 08:46:53;;;;;;;6.78;4.62;;;;;;;28.90;42.27;95196.58;1787785;80;21563;-59
2021/07/31 08:49:20;;;;;;;4.95;4.37;;;;;;;28.94;44.47;95202.58;1787744;80;21028;-59
2021/07/31 08:51:47;;;;;;;12.03;4.25;;;;;;;29.10;45.23;95206.36;1787366;80;20998;-60
2021/07/31 08:54:14;;;;;;;5.22;4.75;;;;;;;29.22;43.66;95206.17;1788007;80;21002;-59
2021/07/31 08:56:46;;;;;;;6.67;4.15;;;;;;;29.34;44.01;95204.95;1787690;80;21001;-59
2021/07/31 08:59:10;;;;;;;5.25;4.30;;;;;;;29.42;44.02;95206.91;1786460;80;21021;-59
2021/07/31 09:01:37;;;;;;;4.72;4.22;;;;;;;29.64;43.88;95208.33;1787733;80;21038;-59
2021/07/31 09:04:15;;;;;;;5.15;4.62;;;;;;;29.75;42.96;95207.60;1787754;80;21040;-60
2021/07/31 09:06:44;;;;;;;7.00;4.42;;;;;;;29.87;43.22;95209.59;1787453;80;21053;-60
2021/07/31 09:09:11;;;;;;;4.92;3.92;;;;;;;29.97;42.76;95205.43;1757836;80;20970;-59
2021/07/31 09:12:03;;;;;;;6.45;4.30;;;;;;;30.15;44.39;95210.33;1787600;80;21460;-60
2021/07/31 09:14:31;;;;;;;6.53;4.15;;;;;;;30.31;42.87;95214.22;1787975;80;21010;-59
2021/07/31 09:16:58;;;;;;;5.90;4.50;;;;;;;30.46;42.31;95208.54;1787872;80;21013;-59
2021/07/31 09:19:26;;;;;;;5.05;4.55;;;;;;;30.53;41.16;95200.08;1787867;80;21047;-60
2021/07/31 09:22:06;;;;;;;7.22;4.58;;;;;;;30.62;41.48;95209.17;1787126;80;21544;-60
2021/07/31 09:24:33;;;;;;;4.95;4.03;;;;;;;30.73;39.91;95203.44;1782878;80;21021;-60
2021/07/31 09:27:00;;;;;;;6.08;4.10;;;;;;;30.95;38.70;95202.05;1752036;80;21591;-60
2021/07/31 09:29:35;;;;;;;9.78;4.45;;;;;;;31.02;39.32;95196.78;1788013;80;20977;-59
2021/07/31 09:32:05;;;;;;;6.95;3.98;;;;;;;30.75;37.96;95192.39;1787618;80;20998;-59
2021/07/31 09:34:45;;;;;;;4.42;4.03;;;;;;;30.36;38.53;95190.95;1787819;80;21474;-59
2021/07/31 09:37:27;;;;;;;4.80;4.40;;;;;;;30.13;40.38;95190.58;1786847;80;21006;-59
2021/07/31 09:40:02;;;;;;;6.55;4.20;;;;;;;29.98;41.34;95189.44;1787889;80;21013;-59
2021/07/31 09:42:32;;;;;;;6.75;4.10;;;;;;;29.78;39.94;95184.68;1787674;80;21045;-60
2021/07/31 09:45:13;;;;;;;4.83;4.28;;;;;;;29.74;40.94;95180.08;1787730;80;20950;-60
2021/07/31 09:48:02;;;;;;;6.12;4.30;;;;;;;29.74;41.44;95184.16;1787585;80;21013;-60
2021/07/31 09:50:44;;;;;;;5.35;4.40;;;;;;;30.04;41.87;95178.43;1787788;80;21510;-60
2021/07/31 09:53:19;;;;;;;4.22;3.83;;;;;;;30.30;40.01;95171.70;1787636;80;20993;-60
2021/07/31 09:55:48;;;;;;;4.67;3.92;;;;;;;30.61;41.29;95166.09;1787541;80;20974;-60
2021/07/31 09:58:17;;;;;;;4.50;4.10;;;;;;;30.81;39.88;95158.53;1787708;80;20997;-60
2021/07/31 10:00:45;;;;;;;4.83;4.30;;;;;;;30.98;39.49;95144.51;1787541;80;21077;-59
2021/07/31 10:03:16;;;;;;;5.20;4.72;;;;;;;31.24;39.56;95135.38;1787966;80;21006;-60
2021/07/31 10:05:43;;;;;;;13.88;4.45;;;;;;;31.40;38.91;95134.59;1787738;80;21005;-60
2021/07/31 10:08:11;;;;;;;4.97;4.30;;;;;;;31.59;39.06;95131.55;1752186;80;21017;-60
2021/07/31 10:10:40;;;;;;;10.90;4.45;;;;;;;31.79;38.56;95128.50;1787535;80;20993;-60
2021/07/31 10:13:07;;;;;;;5.08;4.58;;;;;;;31.99;38.53;95126.31;1787775;80;20962;-59
2021/07/31 10:15:34;;;;;;;5.25;4.42;;;;;;;32.08;36.55;95122.53;1787244;80;21094;-59
2021/07/31 10:18:10;;;;;;;4.85;4.20;;;;;;;32.23;38.11;95121.33;1787779;80;20989;-59
2021/07/31 10:20:39;;;;;;;7.80;4.60;;;;;;;32.34;36.32;95115.00;1787592;80;20978;-60
2021/07/31 10:23:07;;;;;;;4.85;4.35;;;;;;;32.53;37.40;95115.17;1787810;80;21033;-60
2021/07/31 10:25:34;;;;;;;6.40;4.22;;;;;;;32.69;36.60;95113.41;1782819;80;21021;-59
2021/07/31 10:28:25;;;;;;;4.53;3.83;;;;;;;32.79;35.47;95119.52;1787654;80;21005;-60
2021/07/31 10:30:52;;;;;;;6.50;3.70;;;;;;;32.85;34.51;95124.77;1787664;80;21088;-59
2021/07/31 10:33:47;;;;;;;6.25;4.03;;;;;;;32.91;33.64;95129.52;1787750;80;21009;-60
2021/07/31 10:36:36;;;;;;;4.67;4.03;;;;;;;33.06;34.50;95127.77;1787419;80;21010;-59
2021/07/31 10:39:31;;;;;;;5.45;3.70;;;;;;;33.17;32.67;95132.85;1787439;80;21049;-59
2021/07/31 10:42:02;;;;;;;4.20;3.80;;;;;;;33.28;32.36;95127.48;1787502;80;21013;-60
2021/07/31 10:44:33;;;;;;;5.42;4.00;;;;;;;33.28;30.69;95128.86;1787865;80;21432;-59
2021/07/31 10:47:25;;;;;;;4.10;3.80;;;;;;;33.17;32.57;95126.02;1786660;80;21006;-59
2021/07/31 10:49:52;;;;;;;5.92;4.25;;;;;;;33.19;29.79;95116.28;1774089;80;21021;-60
2021/07/31 10:52:53;;;;;;;4.53;4.12;;;;;;;33.46;32.21;95118.15;1787923;80;21001;-60
2021/07/31 10:55:26;;;;;;;4.97;4.05;;;;;;;33.81;32.45;95109.88;1787715;80;21459;-60
2021/07/31 10:58:00;;;;;;;4.60;3.95;;;;;;;34.11;30.17;95104.01;1787581;80;21052;-60
2021/07/31 11:00:34;;;;;;;8.48;3.92;;;;;;;34.25;29.52;95105.93;1787751;80;21037;-60
2021/07/31 11:03:06;;;;;;;4.05;3.58;;;;;;;34.23;29.74;95104.41;1787678;80;21044;-60
2021/07/31 11:05:55;;;;;;;6.08;4.70;;;;;;;34.31;29.70;95103.48;1787857;80;21487;-60
2021/07/31 11:08:28;;;;;;;4.78;4.25;;;;;;;34.30;29.09;95094.91;1787881;80;21013;-60
2021/07/31 11:10:57;;;;;;;8.88;4.45;;;;;;;34.50;30.83;95095.22;1787459;80;20986;-60
2021/07/31 11:13:29;;;;;;;8.05;4.50;;;;;;;34.75;31.64;95093.08;1787465;80;21070;-60
2021/07/31 11:16:13;;;;;;;;;;;;;;;34.78;30.06;95092.19;1790258;80;21021;-59
2021/07/31 11:18:44;;;;;;;4.70;4.20;;;;;;;34.58;27.83;95090.55;1787148;80;20381;-60
2021/07/31 11:21:27;;;;;;;5.95;4.33;;;;;;;34.50;29.16;95087.00;1787548;80;20998;-59
2021/07/31 11:24:07;;;;;;;5.10;4.37;;;;;;;34.47;29.38;95082.25;1787608;80;21001;-60
2021/07/31 11:26:50;;;;;;;4.83;4.42;;;;;;;34.57;29.64;95082.47;1787141;80;21037;-59
2021/07/31 11:29:26;;;;;;;5.03;4.53;;;;;;;34.85;29.79;95091.77;1787827;80;20993;-60
2021/07/31 11:32:12;;;;;;;6.08;3.95;;;;;;;34.71;27.90;95085.77;1787838;80;20974;-59
2021/07/31 11:34:42;;;;;;;5.80;4.40;;;;;;;34.67;29.48;95083.06;1787732;80;21420;-59
2021/07/31 11:37:09;;;;;;;5.65;4.70;;;;;;;34.69;30.92;95083.73;1787725;80;21025;-60
2021/07/31 11:39:37;;;;;;;6.05;4.45;;;;;;;34.84;30.02;95075.50;1787383;80;21037;-60
2021/07/31 11:42:06;;;;;;;5.65;4.50;;;;;;;35.00;29.80;95073.89;1788123;80;21008;-59
2021/07/31 11:44:38;;;;;;;7.35;4.47;;;;;;;35.16;30.13;95072.88;1787491;80;21039;-60